Time;durP1;ratioP1;P1;durP2;ratioP2;P2;SDS_P1;SDS_P2;PMS_P1;PMS_P2;Temp;Humidity;BMP_temperature;BMP_pressure;BME280_temperature;BME280_humidity;BME280_pressure;Samples;Min_cycle;Max_cycle;Signal;HPM_P1;HPM_P2
2021/01/19 00:01:09;;;;;;;6.95;2.20;;;16.10;55.70;;;;;;5034350;28;20489;-70
2021/01/19 00:03:35;;;;;;;6.93;2.00;;;16.00;55.70;;;;;;5033911;28;20028;-70
2021/01/19 00:06:02;;;;;;;5.63;1.95;;;16.00;55.80;;;;;;5034018;28;20378;-69
2021/01/19 00:08:27;;;;;;;4.13;1.92;;;15.90;55.70;;;;;;5016670;28;20406;-70
2021/01/19 00:10:53;;;;;;;5.53;1.85;;;15.90;56.30;;;;;;5014579;28;20030;-69
2021/01/19 00:13:21;;;;;;;7.72;2.22;;;15.90;55.80;;;;;;5013277;28;20057;-70
2021/01/19 00:15:47;;;;;;;8.40;2.40;;;15.90;55.90;;;;;;5013713;28;20026;-69
2021/01/19 00:18:13;;;;;;;7.20;2.10;;;15.90;55.90;;;;;;5013838;28;20561;-70
2021/01/19 00:20:39;;;;;;;8.90;2.50;;;15.80;55.90;;;;;;5013804;28;20101;-70
2021/01/19 00:23:05;;;;;;;6.57;2.30;;;15.80;55.90;;;;;;5014032;28;20037;-69
2021/01/19 00:25:31;;;;;;;5.22;1.85;;;15.80;56.00;;;;;;5014247;28;20026;-70
2021/01/19 00:27:56;;;;;;;7.75;2.40;;;15.80;56.00;;;;;;5012341;28;20030;-69
2021/01/19 00:30:22;;;;;;;4.35;1.75;;;15.70;56.00;;;;;;5013745;28;20462;-69
2021/01/19 00:32:47;;;;;;;5.57;2.25;;;15.70;56.00;;;;;;5013199;28;20042;-70
2021/01/19 00:35:13;;;;;;;6.60;2.47;;;15.70;56.00;;;;;;5012257;28;20080;-73
2021/01/19 00:37:39;;;;;;;9.15;2.20;;;15.70;56.10;;;;;;5013485;28;20160;-72
2021/01/19 00:40:05;;;;;;;8.23;2.75;;;15.60;56.10;;;;;;5013746;28;20021;-73
2021/01/19 00:42:30;;;;;;;6.57;2.40;;;15.60;56.10;;;;;;5013902;28;20014;-73
2021/01/19 00:44:56;;;;;;;6.43;2.22;;;15.60;56.20;;;;;;5013232;28;20449;-73
2021/01/19 00:47:21;;;;;;;7.25;2.03;;;15.60;56.20;;;;;;5013373;28;20513;-73
2021/01/19 00:49:47;;;;;;;9.02;2.42;;;15.50;56.20;;;;;;5012945;28;20101;-69
2021/01/19 00:52:13;;;;;;;10.25;2.40;;;15.50;56.30;;;;;;5013359;28;20046;-69
2021/01/19 00:54:38;;;;;;;6.97;2.20;;;15.50;56.30;;;;;;5013164;28;20474;-68
2021/01/19 00:57:04;;;;;;;6.28;2.70;;;15.50;56.30;;;;;;5013216;28;20033;-69
2021/01/19 00:59:29;;;;;;;8.35;2.38;;;15.40;56.30;;;;;;5013349;28;20030;-69
2021/01/19 01:01:55;;;;;;;7.22;2.42;;;15.40;56.40;;;;;;5012691;28;20022;-73
2021/01/19 01:04:20;;;;;;;9.60;2.50;;;15.40;56.40;;;;;;5014095;28;20096;-74
2021/01/19 01:06:52;;;;;;;6.60;2.70;;;15.40;56.40;;;;;;5012918;28;20512;-73
2021/01/19 01:09:18;;;;;;;6.60;2.40;;;15.40;56.50;;;;;;5013168;28;20026;-75
2021/01/19 01:11:44;;;;;;;7.40;2.42;;;15.30;56.50;;;;;;5012801;28;20390;-75
2021/01/19 01:14:10;;;;;;;6.00;2.00;;;15.30;56.40;;;;;;5011750;28;20045;-75
2021/01/19 01:16:37;;;;;;;8.65;2.60;;;15.30;57.00;;;;;;5012531;28;20026;-74
2021/01/19 01:19:03;;;;;;;10.20;2.85;;;15.30;56.50;;;;;;5012771;28;20033;-74
2021/01/19 01:21:29;;;;;;;10.25;3.22;;;15.20;56.60;;;;;;5013311;28;20022;-75
2021/01/19 01:23:55;;;;;;;4.53;2.00;;;15.30;56.60;;;;;;5012425;28;20460;-74
2021/01/19 01:26:23;;;;;;;6.13;2.40;;;15.20;56.60;;;;;;5012858;28;20476;-70
2021/01/19 01:28:48;;;;;;;6.03;2.28;;;15.20;56.60;;;;;;5012591;28;20022;-69
2021/01/19 01:31:19;;;;;;;8.52;2.60;;;15.20;56.70;;;;;;5019812;28;20044;-74
2021/01/19 01:33:45;;;;;;;6.43;2.67;;;15.20;56.80;;;;;;5031820;28;20033;-73
2021/01/19 01:36:11;;;;;;;9.27;2.65;;;15.10;56.70;;;;;;5032299;28;20021;-74
2021/01/19 01:38:37;;;;;;;6.95;2.83;;;15.10;57.40;;;;;;5030724;28;20059;-74
2021/01/19 01:41:03;;;;;;;8.27;2.63;;;15.10;56.80;;;;;;5032156;28;20033;-73
2021/01/19 01:43:28;;;;;;;8.82;2.83;;;15.10;56.90;;;;;;5032345;28;20025;-73
2021/01/19 01:45:54;;;;;;;7.55;2.20;;;15.10;56.90;;;;;;5031878;28;20576;-75
2021/01/19 01:48:19;;;;;;;10.48;3.33;;;15.10;56.90;;;;;;5032207;28;20052;-75
2021/01/19 01:50:45;;;;;;;6.18;2.35;;;15.00;56.90;;;;;;5030601;28;20112;-69
2021/01/19 01:53:12;;;;;;;5.90;2.70;;;15.00;57.00;;;;;;5031986;28;20080;-70
2021/01/19 01:55:39;;;;;;;7.80;2.78;;;15.00;57.00;;;;;;5031807;28;20167;-69
2021/01/19 01:58:05;;;;;;;7.95;2.42;;;15.00;57.10;;;;;;5030851;28;20075;-70
2021/01/19 02:00:30;;;;;;;6.32;2.25;;;15.00;57.10;;;;;;5012294;28;20093;-70
2021/01/19 02:02:57;;;;;;;7.00;2.25;;;15.00;57.10;;;;;;5011906;28;20030;-70
2021/01/19 02:05:25;;;;;;;11.27;3.20;;;14.90;57.10;;;;;;5012059;28;20014;-71
2021/01/19 02:08:02;;;;;;;9.80;2.53;;;14.90;57.10;;;;;;5011786;28;20029;-70
2021/01/19 02:11:00;;;;;;;9.00;2.67;;;14.90;57.20;;;;;;5012134;28;20033;-71
2021/01/19 02:13:44;;;;;;;6.85;2.80;;;14.90;57.20;;;;;;5010311;28;20037;-69
2021/01/19 02:16:29;;;;;;;7.72;3.20;;;14.90;57.30;;;;;;5012069;28;20034;-69
2021/01/19 02:19:29;;;;;;;7.85;2.60;;;14.90;57.30;;;;;;5010287;28;20029;-69
2021/01/19 02:22:39;;;;;;;6.80;2.55;;;14.80;57.30;;;;;;5011587;28;20145;-69
2021/01/19 02:25:22;;;;;;;6.13;2.42;;;14.80;57.30;;;;;;5009649;28;20125;-69
2021/01/19 02:28:18;;;;;;;8.25;2.90;;;14.80;57.40;;;;;;5009103;28;20418;-69
2021/01/19 02:30:53;;;;;;;8.07;3.10;;;14.80;58.00;;;;;;5010333;28;20056;-70
2021/01/19 02:33:40;;;;;;;5.28;2.53;;;14.80;57.50;;;;;;5011645;28;20041;-70
2021/01/19 02:36:20;;;;;;;7.28;2.67;;;14.80;57.50;;;;;;5011008;28;20022;-69
2021/01/19 02:38:58;;;;;;;6.72;2.30;;;14.70;57.50;;;;;;5011443;28;20084;-70
2021/01/19 02:41:25;;;;;;;8.73;2.97;;;14.70;57.60;;;;;;5012450;28;20105;-69
2021/01/19 02:44:15;;;;;;;6.32;2.33;;;14.70;57.60;;;;;;5011367;28;20077;-69
2021/01/19 02:46:41;;;;;;;11.35;3.05;;;14.70;57.60;;;;;;5009997;28;20022;-69
2021/01/19 02:49:06;;;;;;;7.63;2.50;;;14.70;57.70;;;;;;5010079;28;20034;-69
2021/01/19 02:51:32;;;;;;;8.27;2.72;;;14.70;57.70;;;;;;5011462;28;20062;-72
2021/01/19 02:53:58;;;;;;;5.88;2.60;;;14.70;57.80;;;;;;5011506;28;20073;-72
2021/01/19 02:56:45;;;;;;;7.78;2.50;;;14.70;57.80;;;;;;5011199;28;20026;-71
2021/01/19 02:59:50;;;;;;;5.60;2.22;;;14.70;57.80;;;;;;5011469;28;20022;-73
2021/01/19 03:02:21;;;;;;;6.30;2.35;;;14.60;58.00;;;;;;5009109;28;20030;-70
2021/01/19 03:04:49;;;;;;;9.50;2.83;;;14.60;58.00;;;;;;5009044;28;20209;-73
2021/01/19 03:07:16;;;;;;;7.32;2.40;;;14.60;58.00;;;;;;5010048;28;20042;-72
2021/01/19 03:09:44;;;;;;;7.85;2.58;;;14.60;58.10;;;;;;5011000;28;20029;-71
2021/01/19 03:12:12;;;;;;;6.38;2.40;;;14.60;58.00;;;;;;5011312;28;20030;-72
2021/01/19 03:14:39;;;;;;;5.13;2.60;;;14.50;58.10;;;;;;5010909;28;20030;-73
2021/01/19 03:17:10;;;;;;;4.05;2.20;;;14.50;58.10;;;;;;5011232;28;20022;-72
2021/01/19 03:19:40;;;;;;;7.55;2.63;;;14.50;58.10;;;;;;5011043;28;20117;-73
2021/01/19 03:22:06;;;;;;;6.50;2.33;;;14.50;58.10;;;;;;5011110;28;20034;-73
2021/01/19 03:24:32;;;;;;;5.72;2.30;;;14.50;58.20;;;;;;5012230;28;20501;-71
2021/01/19 03:26:58;;;;;;;6.18;2.50;;;14.50;58.20;;;;;;5010089;28;20026;-69
2021/01/19 03:29:23;;;;;;;5.55;2.22;;;14.50;58.20;;;;;;5011128;28;20022;-69
2021/01/19 03:31:49;;;;;;;9.52;2.47;;;14.50;58.30;;;;;;5010351;28;20034;-70
2021/01/19 03:34:15;;;;;;;5.82;2.42;;;14.40;58.30;;;;;;5011116;28;20033;-73
2021/01/19 03:36:40;;;;;;;6.32;2.47;;;14.50;58.40;;;;;;5010598;28;20478;-73
2021/01/19 03:39:06;;;;;;;8.88;2.78;;;14.40;58.40;;;;;;5011025;28;20028;-73
2021/01/19 03:41:32;;;;;;;4.80;1.88;;;14.40;58.50;;;;;;5010496;28;20537;-73
2021/01/19 03:43:57;;;;;;;8.65;2.17;;;14.40;58.50;;;;;;5011092;28;20107;-72
2021/01/19 03:46:23;;;;;;;5.22;1.83;;;14.40;58.50;;;;;;5012391;28;20387;-73
2021/01/19 03:48:49;;;;;;;6.47;2.40;;;14.40;58.50;;;;;;5014438;28;20033;-74
2021/01/19 03:51:15;;;;;;;6.25;2.75;;;14.40;58.50;;;;;;5014617;28;20038;-74
2021/01/19 03:53:41;;;;;;;10.63;2.47;;;14.30;58.60;;;;;;5014483;28;20040;-73
2021/01/19 03:56:07;;;;;;;5.15;2.47;;;14.40;58.60;;;;;;5034201;28;20022;-70
2021/01/19 03:58:32;;;;;;;6.70;2.13;;;14.40;58.70;;;;;;5033850;28;20036;-73
2021/01/19 04:00:58;;;;;;;5.25;2.30;;;14.40;58.70;;;;;;5027747;28;20119;-73
2021/01/19 04:03:23;;;;;;;8.32;2.47;;;14.30;58.70;;;;;;5014124;28;20026;-74
2021/01/19 04:05:49;;;;;;;6.35;2.22;;;14.30;58.80;;;;;;5013931;28;20834;-74
2021/01/19 04:08:14;;;;;;;5.13;2.58;;;14.30;58.90;;;;;;5014282;28;20510;-70
2021/01/19 04:10:40;;;;;;;6.20;2.20;;;14.30;58.90;;;;;;5013966;28;20143;-69
2021/01/19 04:13:06;;;;;;;6.68;2.08;;;14.30;58.90;;;;;;5013875;28;20034;-69
2021/01/19 04:15:31;;;;;;;6.72;2.28;;;14.30;58.90;;;;;;5014360;28;20110;-74
2021/01/19 04:17:57;;;;;;;10.23;2.53;;;14.30;59.00;;;;;;5014428;28;20454;-69
2021/01/19 04:20:23;;;;;;;6.25;2.17;;;14.20;59.10;;;;;;5014025;28;20033;-69
2021/01/19 04:22:48;;;;;;;5.15;1.80;;;14.20;59.10;;;;;;5015336;28;20030;-69
2021/01/19 04:25:14;;;;;;;6.93;2.30;;;14.20;59.10;;;;;;5033750;28;20378;-69
2021/01/19 04:27:39;;;;;;;8.30;2.33;;;14.20;59.20;;;;;;5033348;28;20378;-70
2021/01/19 04:30:09;;;;;;;7.30;2.58;;;14.20;59.20;;;;;;5033610;28;20044;-71
2021/01/19 04:32:36;;;;;;;7.90;2.35;;;14.20;59.20;;;;;;5031583;28;20041;-71
2021/01/19 04:35:03;;;;;;;8.43;2.83;;;14.20;59.20;;;;;;5033784;28;20030;-71
2021/01/19 04:37:28;;;;;;;6.57;2.30;;;14.20;59.30;;;;;;5033716;28;20022;-69
2021/01/19 04:39:54;;;;;;;6.57;2.00;;;14.20;59.30;;;;;;5033298;28;20033;-69
2021/01/19 04:42:20;;;;;;;5.60;2.35;;;14.20;59.30;;;;;;5012564;28;20022;-69
2021/01/19 04:44:48;;;;;;;6.43;1.80;;;14.20;59.40;;;;;;5013368;28;20105;-70
2021/01/19 04:47:16;;;;;;;5.80;1.80;;;14.10;59.90;;;;;;5014400;28;20514;-70
2021/01/19 04:49:43;;;;;;;6.65;2.20;;;14.10;59.40;;;;;;5013215;28;20026;-69
2021/01/19 04:52:15;;;;;;;7.82;2.15;;;14.10;59.50;;;;;;5013129;28;20470;-69
2021/01/19 04:55:04;;;;;;;6.22;1.80;;;14.10;59.50;;;;;;5013233;28;20032;-69
2021/01/19 04:57:31;;;;;;;7.20;2.30;;;14.10;59.50;;;;;;5023051;28;20128;-70
2021/01/19 05:00:05;;;;;;;6.97;1.75;;;14.10;59.60;;;;;;5033301;28;20025;-69
2021/01/19 05:02:51;;;;;;;7.63;2.20;;;14.10;59.60;;;;;;5033308;28;20030;-69
2021/01/19 05:05:16;;;;;;;4.43;1.48;;;14.10;59.70;;;;;;5032952;28;20033;-70
2021/01/19 05:08:02;;;;;;;6.15;2.05;;;14.10;59.80;;;;;;5032751;28;20041;-69
2021/01/19 05:10:35;;;;;;;5.17;2.30;;;14.00;59.70;;;;;;5031568;28;20488;-69
2021/01/19 05:13:11;;;;;;;4.78;1.70;;;14.00;59.70;;;;;;5013187;28;20029;-70
2021/01/19 05:15:43;;;;;;;5.32;1.77;;;14.00;59.80;;;;;;5012714;28;20034;-69
2021/01/19 05:18:10;;;;;;;5.20;2.00;;;14.00;59.90;;;;;;5012944;28;20026;-71
2021/01/19 05:20:43;;;;;;;5.70;2.03;;;14.00;59.90;;;;;;5013532;28;20068;-71
2021/01/19 05:23:21;;;;;;;6.90;1.83;;;14.00;60.00;;;;;;5012358;28;20037;-70
2021/01/19 05:26:01;;;;;;;6.10;2.15;;;14.00;59.90;;;;;;5012690;28;20109;-71
2021/01/19 05:28:39;;;;;;;5.97;1.70;;;14.00;60.00;;;;;;5012605;28;20405;-71
2021/01/19 05:31:27;;;;;;;4.28;1.52;;;14.00;60.00;;;;;;5012605;28;20033;-71
2021/01/19 05:33:53;;;;;;;7.10;2.00;;;14.00;60.10;;;;;;5012346;28;20045;-71
2021/01/19 05:36:20;;;;;;;4.80;1.83;;;14.00;60.20;;;;;;5012499;28;20028;-74
2021/01/19 05:38:47;;;;;;;8.02;1.88;;;14.00;60.40;;;;;;5010880;28;20478;-76
2021/01/19 05:41:37;;;;;;;4.53;1.95;;;14.00;60.20;;;;;;5024015;28;20022;-69
2021/01/19 05:44:18;;;;;;;5.43;1.50;;;14.00;60.30;;;;;;5032267;28;20036;-75
2021/01/19 05:46:58;;;;;;;7.22;1.92;;;13.90;60.20;;;;;;5032017;28;20017;-74
2021/01/19 05:49:26;;;;;;;9.77;2.03;;;13.90;60.30;;;;;;5031957;28;20056;-74
2021/01/19 05:51:58;;;;;;;5.72;1.42;;;13.90;60.40;;;;;;5030170;28;20034;-69
2021/01/19 05:54:27;;;;;;;5.68;1.80;;;13.90;60.50;;;;;;5032060;28;20021;-73
2021/01/19 05:57:03;;;;;;;6.47;2.13;;;13.90;60.50;;;;;;5030041;28;20022;-69
2021/01/19 05:59:31;;;;;;;6.32;1.48;;;14.00;60.50;;;;;;5032119;28;20017;-70
2021/01/19 06:02:03;;;;;;;5.38;1.60;;;14.10;60.30;;;;;;5028331;28;20038;-69
2021/01/19 06:04:36;;;;;;;4.07;1.45;;;14.20;60.20;;;;;;5012721;28;20030;-74
2021/01/19 06:07:04;;;;;;;5.53;1.70;;;14.30;60.00;;;;;;5011821;28;20037;-74
2021/01/19 06:09:30;;;;;;;9.23;1.17;;;14.40;59.90;;;;;;5027304;28;20017;-76
2021/01/19 06:11:56;;;;;;;4.25;1.27;;;14.50;59.80;;;;;;5017847;28;20030;-74
2021/01/19 06:14:24;;;;;;;4.95;1.40;;;14.60;59.80;;;;;;5011031;28;20069;-75
2021/01/19 06:16:50;;;;;;;3.55;1.33;;;14.70;59.90;;;;;;5011409;28;20389;-74
2021/01/19 06:19:29;;;;;;;4.80;1.23;;;14.80;60.00;;;;;;5011967;28;20021;-75
2021/01/19 06:21:56;;;;;;;5.32;1.67;;;14.90;59.90;;;;;;5019889;28;20083;-76
2021/01/19 06:24:32;;;;;;;3.25;1.17;;;15.00;59.90;;;;;;5014330;28;20533;-75
2021/01/19 06:26:58;;;;;;;3.53;1.15;;;15.10;59.70;;;;;;5011015;28;20030;-69
2021/01/19 06:29:24;;;;;;;3.97;1.23;;;15.20;59.60;;;;;;5011420;28;20044;-70
2021/01/19 06:31:51;;;;;;;3.15;0.90;;;15.30;59.50;;;;;;5028117;28;21992;-70
2021/01/19 06:34:34;;;;;;;3.15;1.27;;;15.40;59.50;;;;;;5029720;28;20458;-70
2021/01/19 06:37:01;;;;;;;3.95;1.00;;;15.40;59.30;;;;;;5019744;28;20025;-69
2021/01/19 06:39:34;;;;;;;3.17;1.20;;;15.60;59.30;;;;;;5014865;28;20037;-69
2021/01/19 06:42:11;;;;;;;2.58;0.90;;;15.70;59.10;;;;;;5029832;28;20482;-69
2021/01/19 06:44:45;;;;;;;3.45;1.10;;;15.70;58.90;;;;;;5028149;28;20017;-70
2021/01/19 06:47:13;;;;;;;5.00;1.05;;;15.80;58.80;;;;;;5030698;28;20029;-70
2021/01/19 06:49:39;;;;;;;5.32;1.50;;;15.90;58.70;;;;;;5030335;28;20490;-71
2021/01/19 06:52:13;;;;;;;3.10;0.95;;;16.00;58.60;;;;;;5030314;28;20026;-69
2021/01/19 06:54:51;;;;;;;3.20;0.90;;;16.10;58.70;;;;;;5030215;28;20041;-70
2021/01/19 06:57:47;;;;;;;3.10;1.08;;;16.10;58.80;;;;;;5024789;28;20029;-70
2021/01/19 07:00:19;;;;;;;4.13;0.98;;;16.20;58.80;;;;;;5030495;28;20110;-70
2021/01/19 07:02:49;;;;;;;3.67;1.10;;;16.30;58.80;;;;;;5030773;28;20075;-70
2021/01/19 07:05:24;;;;;;;3.10;1.25;;;16.40;58.80;;;;;;5029637;28;20029;-70
2021/01/19 07:08:16;;;;;;;4.80;1.15;;;16.50;58.70;;;;;;5030051;28;20512;-67
2021/01/19 07:11:05;;;;;;;2.63;0.88;;;16.50;58.70;;;;;;5030819;28;20026;-70
2021/01/19 07:13:37;;;;;;;3.92;1.00;;;16.60;58.50;;;;;;5029667;28;20426;-69
2021/01/19 07:16:08;;;;;;;8.65;1.10;;;16.60;58.70;;;;;;5029889;28;20120;-70
2021/01/19 07:18:53;;;;;;;4.88;1.02;;;16.60;59.00;;;;;;5030506;28;20087;-70
2021/01/19 07:21:20;;;;;;;3.63;0.88;;;16.70;59.00;;;;;;5029981;28;20498;-69
2021/01/19 07:23:45;;;;;;;3.58;0.80;;;16.70;58.90;;;;;;5034651;28;20492;-70
2021/01/19 07:26:19;;;;;;;4.82;1.10;;;16.80;59.00;;;;;;5034743;28;20107;-70
2021/01/19 07:28:46;;;;;;;2.80;1.15;;;16.80;59.10;;;;;;5034016;28;20022;-70
2021/01/19 07:31:13;;;;;;;3.42;0.90;;;16.80;59.10;;;;;;5034416;28;20421;-70
2021/01/19 07:33:43;;;;;;;1.67;0.70;;;16.90;59.20;;;;;;5033675;28;20029;-70
2021/01/19 07:36:19;;;;;;;3.88;0.77;;;16.90;59.30;;;;;;5033479;28;20490;-70
2021/01/19 07:38:45;;;;;;;4.20;1.17;;;17.00;59.60;;;;;;5033226;28;20379;-70
2021/01/19 07:41:11;;;;;;;7.15;1.40;;;17.00;59.70;;;;;;5032196;28;20036;-69
2021/01/19 07:43:38;;;;;;;5.10;1.05;;;17.00;59.70;;;;;;5031149;28;20028;-70
2021/01/19 07:46:04;;;;;;;5.90;0.98;;;17.00;59.60;;;;;;5033244;28;20378;-70
2021/01/19 07:48:36;;;;;;;3.97;1.00;;;17.00;59.40;;;;;;5034433;28;20577;-71
2021/01/19 07:51:15;;;;;;;4.20;0.95;;;17.10;59.50;;;;;;5034030;28;20112;-74
2021/01/19 07:53:55;;;;;;;2.60;0.90;;;17.10;59.50;;;;;;5014367;28;20040;-73
2021/01/19 07:56:28;;;;;;;1.92;0.75;;;17.10;59.40;;;;;;5028188;28;20040;-69
2021/01/19 07:58:55;;;;;;;5.03;0.88;;;17.10;59.30;;;;;;5032556;28;20033;-69
2021/01/19 08:01:29;;;;;;;2.17;0.88;;;17.10;59.30;;;;;;5033404;28;20036;-70
2021/01/19 08:03:55;;;;;;;2.92;1.10;;;17.20;59.30;;;;;;5033432;28;20097;-69
2021/01/19 08:06:31;;;;;;;1.60;0.80;;;17.20;59.00;;;;;;5033980;28;20512;-69
2021/01/19 08:09:11;;;;;;;3.65;1.10;;;17.20;58.80;;;;;;5034076;28;20026;-69
2021/01/19 08:11:38;;;;;;;3.00;0.70;;;17.20;58.90;;;;;;5030980;28;20041;-70
2021/01/19 08:14:05;;;;;;;3.22;0.82;;;17.20;58.50;;;;;;5033512;28;20167;-71
2021/01/19 08:16:32;;;;;;;7.00;1.08;;;17.20;59.40;;;;;;5033719;28;20021;-75
2021/01/19 08:19:05;;;;;;;3.22;0.90;;;17.20;58.70;;;;;;5032969;28;20025;-72
2021/01/19 08:21:49;;;;;;;11.10;2.05;;;17.30;59.10;;;;;;5033719;28;20029;-71
2021/01/19 08:24:15;;;;;;;6.53;1.20;;;17.20;58.80;;;;;;5032683;28;20025;-71
2021/01/19 08:26:43;;;;;;;11.15;2.20;;;17.20;59.10;;;;;;5031438;28;20021;-69
2021/01/19 08:29:09;;;;;;;9.25;2.50;;;17.30;59.20;;;;;;5032328;28;20029;-69
2021/01/19 08:31:38;;;;;;;7.15;1.48;;;17.30;59.00;;;;;;5033116;28;20416;-70
2021/01/19 08:34:07;;;;;;;6.57;1.65;;;17.30;58.80;;;;;;5031798;28;20509;-70
2021/01/19 08:36:35;;;;;;;3.60;1.25;;;17.40;58.60;;;;;;5033049;28;20098;-70
2021/01/19 08:39:03;;;;;;;7.03;1.58;;;17.40;58.50;;;;;;5031200;28;20030;-71
2021/01/19 08:41:29;;;;;;;5.82;1.42;;;17.40;58.50;;;;;;5032983;28;20036;-72
2021/01/19 08:44:03;;;;;;;5.13;1.23;;;17.40;58.40;;;;;;5032266;28;20018;-74
2021/01/19 08:46:32;;;;;;;3.28;1.23;;;17.40;58.40;;;;;;5033088;28;20493;-72
2021/01/19 08:49:04;;;;;;;5.00;1.67;;;17.50;58.20;;;;;;5030445;28;20025;-70
2021/01/19 08:51:30;;;;;;;7.63;1.00;;;17.50;58.20;;;;;;5033099;28;20022;-69
2021/01/19 08:53:56;;;;;;;7.65;1.73;;;17.50;58.40;;;;;;5031575;28;20041;-69
2021/01/19 08:56:26;;;;;;;5.32;1.40;;;17.60;58.40;;;;;;5032157;28;20037;-71
2021/01/19 08:58:53;;;;;;;4.25;0.80;;;17.60;58.30;;;;;;5031987;28;20417;-70
2021/01/19 09:01:20;;;;;;;4.35;1.05;;;17.70;58.40;;;;;;5032646;28;20029;-68
2021/01/19 09:04:01;;;;;;;5.25;1.02;;;17.70;58.10;;;;;;5031812;28;20038;-69
2021/01/19 09:06:28;;;;;;;3.63;0.90;;;17.80;58.00;;;;;;5033299;28;20021;-70
2021/01/19 09:09:00;;;;;;;5.25;1.75;;;17.70;58.60;;;;;;5032713;28;20022;-69
2021/01/19 09:11:27;;;;;;;6.13;1.02;;;17.70;57.90;;;;;;5032378;28;20366;-69
2021/01/19 09:14:07;;;;;;;2.45;0.90;;;17.70;57.80;;;;;;5032572;28;20037;-69
2021/01/19 09:16:34;;;;;;;5.75;1.00;;;17.70;57.70;;;;;;5032749;28;20116;-70
2021/01/19 09:19:01;;;;;;;3.67;0.93;;;17.80;57.70;;;;;;5033180;28;20486;-69
2021/01/19 09:21:27;;;;;;;6.00;0.80;;;17.80;57.60;;;;;;5032705;28;20075;-70
2021/01/19 09:23:54;;;;;;;3.80;0.70;;;17.80;57.50;;;;;;5032274;28;20026;-69
2021/01/19 09:26:19;;;;;;;2.78;0.80;;;17.80;57.50;;;;;;5032374;28;20021;-69
2021/01/19 09:28:45;;;;;;;4.38;1.10;;;17.80;57.50;;;;;;5032330;28;20076;-68
2021/01/19 09:31:11;;;;;;;2.30;0.63;;;17.80;57.40;;;;;;5032528;28;20112;-70
2021/01/19 09:33:38;;;;;;;2.45;0.68;;;17.80;57.30;;;;;;5031637;28;20120;-70
2021/01/19 09:36:09;;;;;;;3.47;0.70;;;17.90;57.30;;;;;;5032431;28;20516;-69
2021/01/19 09:38:36;;;;;;;2.17;0.80;;;17.90;57.30;;;;;;5032131;28;20025;-70
2021/01/19 09:41:02;;;;;;;1.90;0.60;;;17.90;57.10;;;;;;5031214;28;20022;-69
2021/01/19 09:43:29;;;;;;;3.17;0.80;;;17.90;57.10;;;;;;5032460;28;20034;-71
2021/01/19 09:46:00;;;;;;;3.08;0.70;;;17.90;57.10;;;;;;5031900;28;20047;-70
2021/01/19 09:48:28;;;;;;;3.10;1.10;;;18.00;57.60;;;;;;5032007;28;20049;-69
2021/01/19 09:50:58;;;;;;;2.00;0.60;;;18.00;57.10;;;;;;5011955;28;20478;-69
2021/01/19 09:53:30;;;;;;;2.28;0.70;;;18.00;57.10;;;;;;5029317;28;20112;-70
2021/01/19 09:55:57;;;;;;;3.67;0.63;;;18.00;57.10;;;;;;5031710;28;20481;-69
2021/01/19 09:58:24;;;;;;;4.75;0.65;;;18.00;57.10;;;;;;5032051;28;20417;-70
2021/01/19 10:00:50;;;;;;;1.00;0.60;;;18.00;57.00;;;;;;5031614;28;20021;-69
2021/01/19 10:03:18;;;;;;;3.83;0.90;;;18.10;57.00;;;;;;5031760;28;20025;-69
2021/01/19 10:06:05;;;;;;;4.30;1.13;;;18.10;57.00;;;;;;5031073;28;20500;-69
2021/01/19 10:08:31;;;;;;;1.67;0.65;;;18.10;56.90;;;;;;5032119;28;20045;-69
2021/01/19 10:10:58;;;;;;;0.75;0.50;;;18.10;56.90;;;;;;5032157;28;20053;-69
2021/01/19 10:13:26;;;;;;;1.38;0.50;;;18.10;56.80;;;;;;5030477;28;20390;-69
2021/01/19 10:16:03;;;;;;;1.35;0.60;;;18.20;56.90;;;;;;5031535;28;20591;-69
2021/01/19 10:18:30;;;;;;;3.70;0.80;;;18.20;56.80;;;;;;5031906;28;20027;-69
2021/01/19 10:20:56;;;;;;;2.33;0.75;;;18.20;56.80;;;;;;5031454;28;20018;-69
2021/01/19 10:23:30;;;;;;;3.08;0.50;;;18.20;56.70;;;;;;5030835;28;20445;-69
2021/01/19 10:26:28;;;;;;;1.48;0.50;;;18.20;56.90;;;;;;5031391;28;20030;-70
2021/01/19 10:28:56;;;;;;;2.35;0.68;;;18.20;56.80;;;;;;5026998;28;20069;-69
2021/01/19 10:31:24;;;;;;;1.63;0.80;;;18.30;56.80;;;;;;5030800;28;20040;-69
2021/01/19 10:33:59;;;;;;;1.17;0.55;;;18.30;56.70;;;;;;5030390;28;20044;-69
2021/01/19 10:36:26;;;;;;;3.28;0.50;;;18.30;56.70;;;;;;5029841;28;20013;-69
2021/01/19 10:38:53;;;;;;;2.78;0.50;;;18.30;56.70;;;;;;5030962;28;20549;-69
2021/01/19 10:41:29;;;;;;;2.05;0.60;;;18.30;57.10;;;;;;5031444;28;20101;-70
2021/01/19 10:43:56;;;;;;;0.90;0.40;;;18.30;56.60;;;;;;5031471;28;20029;-70
2021/01/19 10:46:27;;;;;;;0.68;0.50;;;18.40;56.70;;;;;;5030748;28;20284;-70
2021/01/19 10:49:03;;;;;;;1.55;0.57;;;18.40;56.60;;;;;;5012290;28;20041;-70
2021/01/19 10:51:29;;;;;;;1.65;0.50;;;18.40;56.60;;;;;;5025930;28;20044;-69
2021/01/19 10:54:21;;;;;;;1.38;0.50;;;18.40;56.70;;;;;;5015746;28;20037;-70
2021/01/19 10:57:05;;;;;;;0.93;0.40;;;18.40;57.20;;;;;;5010000;28;20041;-70
2021/01/19 10:59:31;;;;;;;0.85;0.55;;;18.40;56.70;;;;;;5011783;28;20022;-70
2021/01/19 11:01:57;;;;;;;0.73;0.50;;;18.40;56.60;;;;;;5011297;28;20022;-69
2021/01/19 11:04:24;;;;;;;1.65;0.68;;;18.50;56.70;;;;;;5011407;28;20447;-69
2021/01/19 11:06:50;;;;;;;4.03;0.60;;;18.50;56.60;;;;;;5011056;28;20467;-70
2021/01/19 11:09:16;;;;;;;1.58;0.60;;;18.50;56.60;;;;;;5011283;28;20033;-69
2021/01/19 11:11:41;;;;;;;1.20;0.40;;;18.50;56.60;;;;;;5019019;28;20018;-70
2021/01/19 11:14:08;;;;;;;1.15;0.40;;;18.50;56.60;;;;;;5010919;28;20026;-73
2021/01/19 11:16:40;;;;;;;1.45;0.40;;;18.50;56.80;;;;;;5025077;28;20509;-73
2021/01/19 11:19:07;;;;;;;3.03;0.52;;;18.60;57.00;;;;;;5030920;28;20504;-73
2021/01/19 11:21:34;;;;;;;0.98;0.38;;;18.70;56.80;;;;;;5030765;28;20485;-72
2021/01/19 11:24:02;;;;;;;0.80;0.40;;;18.70;56.80;;;;;;5029956;28;20547;-73
2021/01/19 11:26:28;;;;;;;1.08;0.35;;;18.70;56.80;;;;;;5031318;28;20034;-73
2021/01/19 11:28:55;;;;;;;1.42;0.55;;;18.70;56.80;;;;;;5030355;28;20029;-72
2021/01/19 11:31:29;;;;;;;2.70;0.50;;;18.70;56.80;;;;;;5028445;28;20026;-74
2021/01/19 11:33:55;;;;;;;3.83;0.47;;;18.70;56.80;;;;;;5026377;28;20123;-72
2021/01/19 11:36:35;;;;;;;1.30;0.40;;;18.70;56.80;;;;;;5020600;28;20032;-77
2021/01/19 11:39:03;;;;;;;3.17;0.40;;;18.70;56.80;;;;;;5019897;28;20030;-72
2021/01/19 11:41:29;;;;;;;5.13;0.63;;;18.60;56.90;;;;;;5030820;28;20025;-71
2021/01/19 11:43:55;;;;;;;2.20;0.30;;;18.60;57.40;;;;;;5025215;28;20104;-70
2021/01/19 11:46:24;;;;;;;1.17;0.38;;;18.50;57.10;;;;;;5010899;28;20033;-72
2021/01/19 11:48:51;;;;;;;3.72;0.73;;;18.50;57.60;;;;;;5010791;28;20036;-71
2021/01/19 11:51:21;;;;;;;0.90;0.50;;;18.40;57.20;;;;;;5018363;28;20512;-70
2021/01/19 11:53:49;;;;;;;0.40;0.30;;;18.30;57.30;;;;;;5030105;28;20525;-71
2021/01/19 11:56:16;;;;;;;1.92;0.60;;;18.30;57.50;;;;;;5030400;28;20017;-71
2021/01/19 11:58:42;;;;;;;2.78;0.60;;;18.20;57.70;;;;;;5030086;28;20374;-71
2021/01/19 12:01:15;;;;;;;4.38;0.73;;;18.20;57.80;;;;;;5016673;28;20110;-69
2021/01/19 12:03:40;;;;;;;1.65;0.40;;;18.10;57.90;;;;;;5020713;28;20040;-72
2021/01/19 12:06:06;;;;;;;3.58;0.47;;;18.10;58.30;;;;;;5030334;28;20389;-69
2021/01/19 12:08:32;;;;;;;4.65;0.52;;;18.00;58.20;;;;;;5031754;28;20025;-72
2021/01/19 12:10:57;;;;;;;1.23;0.40;;;18.00;58.80;;;;;;5034262;28;20100;-72
2021/01/19 12:13:24;;;;;;;3.45;0.52;;;17.90;58.80;;;;;;5033860;28;20041;-74
2021/01/19 12:15:50;;;;;;;3.95;1.10;;;17.90;59.00;;;;;;5033695;28;20097;-76
2021/01/19 12:18:16;;;;;;;4.90;1.10;;;17.90;59.30;;;;;;5032289;28;20457;-73
2021/01/19 12:20:41;;;;;;;4.57;1.20;;;17.80;60.00;;;;;;5017823;28;20079;-72
2021/01/19 12:23:07;;;;;;;2.88;1.42;;;17.80;60.20;;;;;;5033833;28;20445;-73
2021/01/19 12:25:32;;;;;;;5.43;1.75;;;17.80;60.70;;;;;;5030421;28;20512;-73
2021/01/19 12:27:59;;;;;;;8.57;3.33;;;17.70;60.80;;;;;;5030996;28;20033;-73
2021/01/19 12:30:25;;;;;;;5.90;2.30;;;17.70;61.80;;;;;;5013879;28;20025;-72
2021/01/19 12:32:52;;;;;;;3.22;1.63;;;17.70;61.60;;;;;;5014540;28;20056;-73
2021/01/19 12:35:18;;;;;;;6.72;1.10;;;17.70;61.50;;;;;;5013691;28;20034;-72
2021/01/19 12:37:43;;;;;;;4.47;1.00;;;17.70;61.20;;;;;;5013363;28;20036;-72
2021/01/19 12:40:10;;;;;;;4.50;1.15;;;17.70;61.40;;;;;;5013678;28;20041;-72
2021/01/19 12:42:35;;;;;;;2.72;1.05;;;17.70;61.50;;;;;;5013396;28;20030;-72
2021/01/19 12:45:01;;;;;;;3.67;1.25;;;17.70;62.20;;;;;;5014937;28;20076;-72
2021/01/19 12:47:27;;;;;;;5.15;1.35;;;17.80;62.40;;;;;;5013489;28;20030;-72
2021/01/19 12:49:53;;;;;;;5.43;0.70;;;17.80;62.10;;;;;;5013274;28;20073;-72
2021/01/19 12:52:18;;;;;;;3.63;0.98;;;17.80;62.00;;;;;;5012111;28;20029;-72
2021/01/19 12:54:44;;;;;;;2.90;0.70;;;17.80;62.10;;;;;;5012923;28;20036;-71
2021/01/19 12:57:13;;;;;;;4.53;0.90;;;17.90;63.30;;;;;;5013545;28;20022;-72
2021/01/19 12:59:42;;;;;;;8.25;1.30;;;18.00;62.50;;;;;;5012858;28;20397;-72